Time;durP1;ratioP1;P1;durP2;ratioP2;P2;SDS_P1;SDS_P2;PMS_P1;PMS_P2;Temp;Humidity;BMP_temperature;BMP_pressure;BME280_temperature;BME280_humidity;BME280_pressure;Samples;Min_cycle;Max_cycle;Signal;HPM_P1;HPM_P2
2021/08/29 00:01:01;;;;;;;23.17;13.25;;;;;;;12.17;100.00;97723.94;5037675;28;20041;-82
2021/08/29 00:03:28;;;;;;;24.20;15.23;;;;;;;12.09;100.00;97722.84;5038339;28;20044;-81
2021/08/29 00:05:56;;;;;;;23.40;14.25;;;;;;;12.17;100.00;97732.09;5035727;28;20494;-83
2021/08/29 00:08:22;;;;;;;26.83;13.30;;;;;;;12.17;100.00;97724.75;5037398;28;20045;-80
2021/08/29 00:10:49;;;;;;;23.02;14.95;;;;;;;12.17;100.00;97730.19;5036963;28;20041;-80
2021/08/29 00:13:15;;;;;;;19.85;13.52;;;;;;;12.14;100.00;97717.25;5035257;28;20048;-79
2021/08/29 00:15:42;;;;;;;22.70;15.43;;;;;;;12.12;100.00;97719.50;5034812;28;20045;-82
2021/08/29 00:18:08;;;;;;;25.33;15.25;;;;;;;12.18;100.00;97733.69;5034545;28;20744;-80
2021/08/29 00:20:36;;;;;;;25.08;14.70;;;;;;;12.17;100.00;97721.25;5035740;28;20053;-81
2021/08/29 00:23:02;;;;;;;26.55;15.32;;;;;;;12.18;100.00;97729.03;5034869;28;20046;-81
2021/08/29 00:25:29;;;;;;;24.05;15.10;;;;;;;12.15;100.00;97731.63;5035306;28;20049;-81
2021/08/29 00:27:56;;;;;;;24.52;15.75;;;;;;;12.07;100.00;97725.09;5034882;28;20048;-81
2021/08/29 00:30:23;;;;;;;21.40;13.43;;;;;;;12.14;100.00;97714.53;5035262;28;20084;-81
2021/08/29 00:32:49;;;;;;;21.70;14.25;;;;;;;12.19;100.00;97711.66;5034137;28;20045;-78
2021/08/29 00:35:16;;;;;;;24.50;14.68;;;;;;;12.13;100.00;97721.06;5034593;28;20444;-80
2021/08/29 00:37:42;;;;;;;25.70;14.80;;;;;;;12.11;100.00;97715.19;5016620;28;20057;-77
2021/08/29 00:40:09;;;;;;;25.50;15.70;;;;;;;12.04;100.00;97714.88;5034491;28;20045;-82
2021/08/29 00:42:37;;;;;;;23.15;13.85;;;;;;;12.05;100.00;97708.34;5034578;28;20041;-81
2021/08/29 00:45:04;;;;;;;22.80;14.80;;;;;;;12.08;100.00;97701.47;5034502;28;20108;-79
2021/08/29 00:47:31;;;;;;;23.30;15.27;;;;;;;12.16;100.00;97709.59;5032498;28;20057;-80
2021/08/29 00:49:58;;;;;;;24.92;15.38;;;;;;;12.20;100.00;97707.84;5033574;28;20041;-79
2021/08/29 00:52:25;;;;;;;27.80;15.75;;;;;;;12.23;100.00;97715.31;5032991;28;20058;-80
2021/08/29 00:54:52;;;;;;;22.55;15.40;;;;;;;12.35;100.00;97710.03;5033106;28;20050;-79
2021/08/29 00:57:18;;;;;;;24.38;16.08;;;;;;;12.27;100.00;97693.75;5033202;28;20053;-78
2021/08/29 00:59:45;;;;;;;23.45;14.05;;;;;;;12.49;100.00;97704.41;5016282;28;20057;-79
2021/08/29 01:02:15;;;;;;;26.05;15.05;;;;;;;12.60;100.00;97711.03;5016707;28;20514;-79
2021/08/29 01:05:11;;;;;;;24.67;16.15;;;;;;;12.68;100.00;97710.22;5034703;28;20111;-79
2021/08/29 01:07:58;;;;;;;24.63;16.33;;;;;;;12.69;100.00;97700.94;5032123;28;20045;-80
2021/08/29 01:10:36;;;;;;;28.75;16.52;;;;;;;12.80;100.00;97702.16;5035483;28;20041;-79
2021/08/29 01:13:12;;;;;;;28.17;16.88;;;;;;;12.74;100.00;97697.25;5017549;28;20438;-78
2021/08/29 01:15:42;;;;;;;35.15;18.35;;;;;;;12.78;100.00;97690.81;5016828;28;20045;-79
2021/08/29 01:18:09;;;;;;;28.70;17.92;;;;;;;12.88;100.00;97703.22;5032287;28;20049;-80
2021/08/29 01:20:45;;;;;;;30.88;17.08;;;;;;;12.90;100.00;97693.66;5036065;28;20075;-78
2021/08/29 01:23:12;;;;;;;31.45;16.90;;;;;;;13.02;100.00;97701.09;5036972;28;20048;-79
2021/08/29 01:25:46;;;;;;;32.53;17.33;;;;;;;13.13;100.00;97704.25;5018632;28;20041;-81
2021/08/29 01:28:15;;;;;;;29.80;17.30;;;;;;;13.17;100.00;97697.81;5037319;28;20071;-79
2021/08/29 01:30:44;;;;;;;33.13;17.80;;;;;;;13.21;100.00;97706.94;5037372;28;20560;-82
2021/08/29 01:33:12;;;;;;;31.95;17.13;;;;;;;13.22;100.00;97697.63;5018700;28;20076;-78
2021/08/29 01:35:41;;;;;;;35.40;18.50;;;;;;;13.33;100.00;97700.75;5036146;28;20049;-79
2021/08/29 01:38:09;;;;;;;36.58;17.63;;;;;;;13.24;100.00;97708.97;5018887;28;20051;-78
2021/08/29 01:40:37;;;;;;;44.17;20.92;;;;;;;13.14;100.00;97693.03;5036280;28;20057;-78
2021/08/29 01:43:04;;;;;;;41.80;19.02;;;;;;;13.22;100.00;97694.91;5036134;28;20049;-79
2021/08/29 01:45:32;;;;;;;39.30;19.75;;;;;;;13.18;100.00;97707.59;5034622;28;20051;-82
2021/08/29 01:47:59;;;;;;;53.85;23.50;;;;;;;13.32;100.00;97705.41;5034798;28;20053;-82
2021/08/29 01:50:27;;;;;;;47.15;21.40;;;;;;;13.33;100.00;97701.56;5034344;28;20055;-80
2021/08/29 01:52:53;;;;;;;86.22;28.58;;;;;;;13.44;100.00;97710.94;5016045;28;20120;-79
2021/08/29 01:55:20;;;;;;;96.85;32.08;;;;;;;13.50;100.00;97704.13;5035873;28;20056;-80
2021/08/29 01:57:47;;;;;;;97.68;32.95;;;;;;;13.51;100.00;97705.75;5035803;28;20099;-80
2021/08/29 02:00:15;;;;;;;164.88;43.17;;;;;;;13.83;100.00;97711.56;5017364;28;20041;-81
2021/08/29 02:02:42;;;;;;;184.82;45.35;;;;;;;13.74;100.00;97711.63;5029656;28;20122;-80
2021/08/29 02:05:10;;;;;;;164.10;44.90;;;;;;;13.79;100.00;97707.91;5030019;28;20042;-79
2021/08/29 02:07:47;;;;;;;137.27;42.10;;;;;;;13.83;100.00;97709.66;5015646;28;20461;-80
2021/08/29 02:10:17;;;;;;;134.57;41.53;;;;;;;13.94;100.00;97705.38;5025958;28;20111;-78
2021/08/29 02:12:49;;;;;;;128.40;40.83;;;;;;;13.90;100.00;97706.38;5047634;28;20041;-77
2021/08/29 02:15:20;;;;;;;120.20;40.90;;;;;;;13.83;100.00;97700.69;5041157;28;20077;-82
2021/08/29 02:17:48;;;;;;;116.90;40.72;;;;;;;13.88;100.00;97670.53;5038866;28;20452;-81
2021/08/29 02:20:19;;;;;;;106.93;39.97;;;;;;;14.02;100.00;97700.97;5041014;28;20041;-82
2021/08/29 02:22:46;;;;;;;101.18;38.30;;;;;;;14.19;100.00;97696.16;5041594;28;20080;-79
2021/08/29 02:25:12;;;;;;;115.60;39.90;;;;;;;14.20;100.00;97689.56;5042022;28;20552;-78
2021/08/29 02:27:41;;;;;;;108.05;39.08;;;;;;;14.18;100.00;97691.03;5039870;28;20045;-80
2021/08/29 02:30:09;;;;;;;106.93;39.63;;;;;;;14.07;100.00;97692.59;5038156;28;20041;-81
2021/08/29 02:32:37;;;;;;;91.32;37.20;;;;;;;14.10;100.00;97690.00;5033220;28;20049;-80
2021/08/29 02:35:05;;;;;;;87.70;37.05;;;;;;;14.25;100.00;97697.53;5019110;28;20056;-80
2021/08/29 02:37:33;;;;;;;90.22;35.42;;;;;;;14.18;100.00;97688.31;5036845;28;20052;-80
2021/08/29 02:40:02;;;;;;;77.05;33.28;;;;;;;14.44;100.00;97691.59;5038552;28;20046;-80
2021/08/29 02:42:30;;;;;;;83.13;32.15;;;;;;;14.48;100.00;97700.66;5019921;28;20053;-80
2021/08/29 02:45:01;;;;;;;74.03;30.85;;;;;;;14.45;100.00;97686.94;5036071;28;20049;-80
2021/08/29 02:47:30;;;;;;;69.47;30.20;;;;;;;14.48;100.00;97675.38;5036018;28;20386;-80
2021/08/29 02:49:57;;;;;;;74.60;30.65;;;;;;;14.40;100.00;97682.47;5038071;28;20057;-82
2021/08/29 02:52:24;;;;;;;68.80;30.52;;;;;;;14.32;100.00;97672.50;5038395;28;20099;-79
2021/08/29 02:54:51;;;;;;;66.68;28.38;;;;;;;14.35;100.00;97690.88;5037652;28;20052;-81
2021/08/29 02:57:21;;;;;;;68.90;30.05;;;;;;;14.31;100.00;97669.00;5038188;28;20109;-81
2021/08/29 02:59:48;;;;;;;71.85;29.15;;;;;;;14.36;100.00;97678.84;5038047;28;20045;-79
2021/08/29 03:02:14;;;;;;;62.95;28.02;;;;;;;14.35;100.00;97679.97;5021082;28;20052;-80
2021/08/29 03:04:42;;;;;;;77.25;30.15;;;;;;;14.29;100.00;97673.16;5039058;28;20046;-81
2021/08/29 03:07:09;;;;;;;68.03;29.08;;;;;;;14.22;100.00;97668.25;5037976;28;20068;-79
2021/08/29 03:09:35;;;;;;;70.35;29.00;;;;;;;14.34;100.00;97681.13;5038516;28;20508;-81
2021/08/29 03:12:08;;;;;;;58.58;26.65;;;;;;;14.43;100.00;97673.66;5039127;28;20045;-81
2021/08/29 03:14:37;;;;;;;60.70;25.80;;;;;;;14.41;100.00;97669.66;5021230;28;20049;-80
2021/08/29 03:17:05;;;;;;;62.88;27.52;;;;;;;14.39;100.00;97678.19;5023180;28;20045;-79
2021/08/29 03:19:32;;;;;;;59.50;25.67;;;;;;;14.38;100.00;97671.13;5038116;28;20060;-80
2021/08/29 03:21:59;;;;;;;56.75;24.27;;;;;;;14.25;100.00;97667.56;5037743;28;20065;-80
2021/08/29 03:24:26;;;;;;;60.10;24.92;;;;;;;14.35;100.00;97663.63;5041289;28;20052;-79
2021/08/29 03:26:53;;;;;;;61.45;23.95;;;;;;;14.30;100.00;97666.56;5056372;28;20040;-78
2021/08/29 03:29:20;;;;;;;52.22;22.35;;;;;;;14.24;100.00;97665.19;5058481;28;20089;-78
2021/08/29 03:31:46;;;;;;;50.10;21.42;;;;;;;14.24;100.00;97662.47;5058198;28;20037;-79
2021/08/29 03:34:16;;;;;;;53.20;22.42;;;;;;;14.22;100.00;97664.75;5056361;28;20039;-78
2021/08/29 03:36:44;;;;;;;51.38;22.67;;;;;;;14.16;100.00;97658.72;5037041;28;20050;-81
2021/08/29 03:39:12;;;;;;;45.92;21.65;;;;;;;14.07;100.00;97660.72;5013794;28;20229;-80
2021/08/29 03:41:40;;;;;;;47.40;21.37;;;;;;;13.99;100.00;97658.13;4149035;28;25437795;-80
2021/08/29 03:44:12;;;;;;;39.17;19.27;;;;;;;13.99;100.00;97658.13;5032706;28;20045;-77
2021/08/29 03:46:40;;;;;;;38.08;18.77;;;;;;;13.94;100.00;97650.94;5015410;28;20053;-77
2021/08/29 03:49:07;;;;;;;36.00;17.92;;;;;;;13.92;100.00;97653.19;5015441;28;20047;-81
2021/08/29 03:51:34;;;;;;;40.17;18.35;;;;;;;13.86;100.00;97656.47;5015700;28;20072;-81
2021/08/29 03:54:01;;;;;;;38.33;18.17;;;;;;;13.80;100.00;97655.88;5015559;28;20045;-81
2021/08/29 03:56:29;;;;;;;41.78;18.45;;;;;;;13.65;100.00;97649.13;4999234;28;20135;-81
2021/08/29 03:58:56;;;;;;;37.97;18.23;;;;;;;13.64;100.00;97650.28;5032817;28;20042;-83
2021/08/29 04:01:23;;;;;;;37.45;17.30;;;;;;;13.60;100.00;97651.28;5031708;28;20041;-78
2021/08/29 04:03:50;;;;;;;40.63;17.80;;;;;;;13.59;100.00;97636.88;5033561;28;20042;-78
2021/08/29 04:06:18;;;;;;;38.95;17.70;;;;;;;13.31;100.00;97637.75;5033788;28;20049;-79
2021/08/29 04:08:48;;;;;;;41.20;18.35;;;;;;;13.36;100.00;97646.53;5016135;28;20049;-80
2021/08/29 04:11:20;;;;;;;40.97;18.45;;;;;;;13.19;100.00;97629.56;5035212;28;20067;-81
2021/08/29 04:13:48;;;;;;;42.40;19.63;;;;;;;13.27;100.00;97643.06;5036312;28;20042;-81
2021/08/29 04:16:16;;;;;;;45.90;18.95;;;;;;;13.22;100.00;97637.03;5016831;28;20770;-76
2021/08/29 04:18:45;;;;;;;41.30;19.52;;;;;;;13.07;100.00;97631.06;5020292;28;20084;-80
2021/08/29 04:21:13;;;;;;;45.33;20.00;;;;;;;13.06;100.00;97640.34;5013066;28;20045;-79
2021/08/29 04:23:40;;;;;;;40.65;19.10;;;;;;;13.01;100.00;97642.41;5014442;28;20038;-79
2021/08/29 04:26:07;;;;;;;51.17;19.17;;;;;;;12.97;100.00;97633.34;5018106;28;20041;-79
2021/08/29 04:28:35;;;;;;;43.10;19.30;;;;;;;12.96;100.00;97639.91;5027036;28;20037;-80
2021/08/29 04:31:07;;;;;;;39.55;18.77;;;;;;;12.92;100.00;97658.00;5025838;28;20049;-79
2021/08/29 04:33:34;;;;;;;40.92;18.45;;;;;;;12.80;100.00;97655.19;5015959;28;20048;-79
2021/08/29 04:36:03;;;;;;;41.00;18.58;;;;;;;12.85;100.00;97652.28;5016345;28;20057;-81
2021/08/29 04:38:29;;;;;;;45.10;20.58;;;;;;;12.86;100.00;97659.31;5015089;28;20041;-80
2021/08/29 04:40:56;;;;;;;41.63;20.00;;;;;;;12.90;100.00;97655.63;5034951;28;20104;-80
2021/08/29 04:43:22;;;;;;;44.70;20.45;;;;;;;12.89;100.00;97655.94;5033274;28;20045;-79
2021/08/29 04:45:49;;;;;;;44.50;20.20;;;;;;;12.91;100.00;97649.03;5034677;28;20049;-78
2021/08/29 04:48:20;;;;;;;46.47;19.80;;;;;;;13.06;100.00;97667.50;5035031;28;20049;-80
2021/08/29 04:50:46;;;;;;;48.10;20.75;;;;;;;13.01;100.00;97654.09;5034254;28;20053;-80
2021/08/29 04:53:13;;;;;;;43.28;20.27;;;;;;;13.19;100.00;97662.94;5033559;28;20155;-79
2021/08/29 04:55:40;;;;;;;45.47;20.73;;;;;;;13.32;100.00;97669.25;5033440;28;20037;-80
2021/08/29 04:58:07;;;;;;;42.35;18.77;;;;;;;13.16;100.00;97660.91;5032992;28;20091;-80
2021/08/29 05:00:34;;;;;;;38.90;18.80;;;;;;;13.17;100.00;97659.78;5007507;28;20042;-79
2021/08/29 05:03:05;;;;;;;37.10;17.58;;;;;;;13.31;100.00;97670.41;5029737;28;20065;-81
2021/08/29 05:05:32;;;;;;;42.15;18.90;;;;;;;13.41;100.00;97659.13;5031767;28;20034;-81
2021/08/29 05:07:58;;;;;;;44.65;19.25;;;;;;;13.51;100.00;97661.44;5044330;28;20037;-81
2021/08/29 05:10:29;;;;;;;37.53;18.65;;;;;;;13.58;100.00;97659.75;5041912;28;20037;-81
2021/08/29 05:12:55;;;;;;;38.50;18.08;;;;;;;13.62;100.00;97666.16;5014649;28;20059;-80
2021/08/29 05:15:22;;;;;;;37.60;18.85;;;;;;;13.77;100.00;97656.56;5030973;28;20072;-79
2021/08/29 05:17:48;;;;;;;39.28;19.10;;;;;;;13.62;100.00;97663.41;5004244;28;20056;-80
2021/08/29 05:20:15;;;;;;;38.08;19.63;;;;;;;13.77;100.00;97663.91;4993011;28;20135;-79
2021/08/29 05:22:44;;;;;;;38.17;18.55;;;;;;;13.78;100.00;97660.09;5013159;28;20135;-81
2021/08/29 05:25:12;;;;;;;41.35;18.58;;;;;;;13.83;100.00;97659.88;5013685;28;20049;-81
2021/08/29 05:27:38;;;;;;;33.80;17.77;;;;;;;13.86;100.00;97659.97;5028798;23;21127;-79
2021/08/29 05:30:05;;;;;;;37.65;17.77;;;;;;;13.96;100.00;97656.06;5016749;28;20100;-80
2021/08/29 05:32:32;;;;;;;36.10;18.70;;;;;;;14.05;100.00;97663.00;5021270;28;20445;-79
2021/08/29 05:34:58;;;;;;;34.03;17.90;;;;;;;14.02;100.00;97671.81;5023873;28;20129;-79
2021/08/29 05:37:25;;;;;;;33.40;18.15;;;;;;;14.16;100.00;97663.38;5003081;28;20045;-78
2021/08/29 05:39:52;;;;;;;33.95;18.27;;;;;;;14.35;100.00;97671.81;5018455;28;20046;-78
2021/08/29 05:42:18;;;;;;;31.30;17.15;;;;;;;14.47;100.00;97663.69;5024266;28;20106;-77
2021/08/29 05:44:45;;;;;;;30.13;16.55;;;;;;;14.80;100.00;97671.75;5013918;28;20065;-77
2021/08/29 05:47:11;;;;;;;23.75;14.65;;;;;;;14.97;100.00;97671.50;5011913;28;20045;-77
2021/08/29 05:49:38;;;;;;;34.15;21.95;;;;;;;15.01;100.00;97671.63;5016477;28;20050;-79
2021/08/29 05:52:05;;;;;;;23.63;13.45;;;;;;;15.17;100.00;97676.03;5015429;28;20053;-76
2021/08/29 05:54:32;;;;;;;17.58;11.88;;;;;;;15.26;100.00;97670.44;4997433;28;20057;-76
2021/08/29 05:56:59;;;;;;;19.45;12.30;;;;;;;15.35;100.00;97671.13;4984035;28;20042;-77
2021/08/29 05:59:25;;;;;;;22.02;12.23;;;;;;;15.27;100.00;97669.31;5016910;28;20390;-79
2021/08/29 06:01:52;;;;;;;21.52;12.45;;;;;;;15.44;100.00;97660.84;5019743;28;20046;-77
2021/08/29 06:04:19;;;;;;;16.85;11.05;;;;;;;15.32;100.00;97663.63;5000271;28;20596;-80
2021/08/29 06:06:45;;;;;;;17.60;11.25;;;;;;;15.12;100.00;97659.91;5021395;28;20037;-77
2021/08/29 06:09:12;;;;;;;15.25;11.45;;;;;;;15.31;100.00;97651.91;5013324;28;20061;-79
2021/08/29 06:11:39;;;;;;;15.80;11.05;;;;;;;15.34;100.00;97647.69;4996419;28;20058;-78
2021/08/29 06:14:06;;;;;;;18.23;12.00;;;;;;;15.51;100.00;97642.78;5012288;28;20229;-79
2021/08/29 06:16:33;;;;;;;19.20;12.60;;;;;;;15.38;100.00;97640.41;4976077;28;20053;-81
2021/08/29 06:19:00;;;;;;;18.90;11.35;;;;;;;15.39;100.00;97637.34;5017062;28;20485;-79
2021/08/29 06:21:28;;;;;;;19.90;11.80;;;;;;;15.30;100.00;97642.16;5020974;28;20034;-82
2021/08/29 06:23:55;;;;;;;17.35;12.07;;;;;;;15.16;100.00;97643.63;5020141;28;20042;-78
2021/08/29 06:26:21;;;;;;;18.90;12.48;;;;;;;15.59;100.00;97638.31;5018406;28;20050;-81
2021/08/29 06:28:48;;;;;;;17.67;11.52;;;;;;;15.87;100.00;97636.38;5016702;28;20049;-79
2021/08/29 06:31:14;;;;;;;18.50;11.73;;;;;;;15.80;100.00;97636.19;5014962;28;20054;-78
2021/08/29 06:33:41;;;;;;;17.02;11.25;;;;;;;15.68;100.00;97635.44;5013431;28;20053;-78
2021/08/29 06:36:08;;;;;;;18.40;11.38;;;;;;;15.90;100.00;97634.88;5027281;28;20032;-77
2021/08/29 06:38:34;;;;;;;16.30;11.23;;;;;;;15.58;100.00;97637.53;4995071;28;20046;-78
2021/08/29 06:41:01;;;;;;;18.10;11.25;;;;;;;15.84;100.00;97634.34;5011758;28;20541;-79
2021/08/29 06:43:28;;;;;;;18.55;11.90;;;;;;;15.98;100.00;97639.38;4996233;28;20042;-78
2021/08/29 06:45:54;;;;;;;18.30;11.82;;;;;;;15.84;100.00;97642.53;5002431;28;20064;-76
2021/08/29 06:48:21;;;;;;;18.52;12.13;;;;;;;15.90;100.00;97638.41;5035397;28;20169;-79
2021/08/29 06:50:47;;;;;;;18.98;11.98;;;;;;;16.10;100.00;97637.38;5035723;28;20045;-80
2021/08/29 06:53:14;;;;;;;19.23;11.82;;;;;;;16.13;100.00;97642.16;5017688;28;20119;-80
2021/08/29 06:55:40;;;;;;;19.58;12.57;;;;;;;16.13;100.00;97646.84;5003519;28;20057;-78
2021/08/29 06:58:07;;;;;;;19.33;12.80;;;;;;;15.89;100.00;97653.22;5021987;28;20042;-79
2021/08/29 07:00:34;;;;;;;23.77;13.02;;;;;;;15.77;100.00;97645.06;5037860;28;20085;-80
2021/08/29 07:03:01;;;;;;;20.50;12.77;;;;;;;16.04;100.00;97640.72;5039523;28;20048;-80
2021/08/29 07:05:28;;;;;;;18.98;13.38;;;;;;;16.05;100.00;97647.78;5040258;28;20037;-80
2021/08/29 07:07:55;;;;;;;19.05;12.70;;;;;;;16.14;100.00;97638.28;5040425;28;20045;-79
2021/08/29 07:10:22;;;;;;;19.17;12.77;;;;;;;16.18;100.00;97632.91;5023465;28;20072;-81
2021/08/29 07:12:48;;;;;;;17.67;13.07;;;;;;;16.37;100.00;97648.59;5040724;28;20046;-80
2021/08/29 07:15:15;;;;;;;18.92;12.95;;;;;;;16.29;100.00;97639.44;5022851;28;20044;-81
2021/08/29 07:17:42;;;;;;;22.38;12.77;;;;;;;16.45;100.00;97653.91;5022274;28;20068;-80
2021/08/29 07:20:09;;;;;;;21.65;13.25;;;;;;;16.28;100.00;97656.19;5040200;28;20116;-80
2021/08/29 07:22:36;;;;;;;23.15;13.80;;;;;;;16.11;100.00;97641.72;5007894;28;20201;-80
2021/08/29 07:25:03;;;;;;;21.50;13.50;;;;;;;16.02;100.00;97651.22;5034108;28;20041;-81
2021/08/29 07:27:30;;;;;;;21.60;12.73;;;;;;;15.97;100.00;97657.72;5018460;28;20045;-81
2021/08/29 07:29:56;;;;;;;21.40;13.25;;;;;;;15.82;100.00;97654.97;5020227;28;20041;-82
2021/08/29 07:32:23;;;;;;;19.88;12.18;;;;;;;16.29;100.00;97653.09;5038506;28;20459;-80
2021/08/29 07:34:50;;;;;;;20.30;12.20;;;;;;;16.36;100.00;97653.28;5020638;28;20042;-80
2021/08/29 07:37:17;;;;;;;17.65;11.60;;;;;;;16.50;100.00;97658.31;5038685;28;20049;-78
2021/08/29 07:39:44;;;;;;;17.35;11.55;;;;;;;16.29;100.00;97655.81;5039151;28;20045;-81
2021/08/29 07:42:10;;;;;;;18.77;11.55;;;;;;;16.73;100.00;97656.56;5038387;28;20049;-80
2021/08/29 07:44:38;;;;;;;17.92;11.52;;;;;;;16.62;100.00;97647.31;5039491;28;20052;-80
2021/08/29 07:47:04;;;;;;;15.20;10.55;;;;;;;16.84;100.00;97643.94;5038279;28;20052;-81
2021/08/29 07:49:31;;;;;;;14.00;10.35;;;;;;;17.04;100.00;97648.31;5038849;28;20053;-80
2021/08/29 07:51:58;;;;;;;14.90;10.13;;;;;;;17.33;100.00;97652.47;5004987;28;20077;-81
2021/08/29 07:54:25;;;;;;;16.85;10.00;;;;;;;17.21;100.00;97655.34;5038852;28;20175;-80
2021/08/29 07:56:52;;;;;;;15.35;9.85;;;;;;;16.89;100.00;97642.88;5021613;28;20045;-82
2021/08/29 07:59:19;;;;;;;16.02;10.77;;;;;;;17.12;100.00;97638.31;5022213;28;20053;-78
2021/08/29 08:01:45;;;;;;;12.73;9.20;;;;;;;17.04;100.00;97642.84;5038695;28;20060;-80
2021/08/29 08:04:12;;;;;;;13.27;8.82;;;;;;;17.11;100.00;97645.72;5046007;28;20041;-80
2021/08/29 08:06:39;;;;;;;12.45;8.73;;;;;;;17.24;100.00;97652.66;5037401;28;20060;-79
2021/08/29 08:09:06;;;;;;;13.23;9.15;;;;;;;16.73;100.00;97640.16;5003881;28;20513;-80
2021/08/29 08:11:32;;;;;;;13.15;8.90;;;;;;;16.73;100.00;97642.88;5037963;28;20057;-79
2021/08/29 08:13:59;;;;;;;13.13;9.55;;;;;;;16.81;100.00;97648.19;5023714;28;20049;-79
2021/08/29 08:16:25;;;;;;;13.85;10.10;;;;;;;17.01;100.00;97648.25;5038325;28;20354;-79
2021/08/29 08:18:52;;;;;;;14.15;9.38;;;;;;;17.09;100.00;97656.25;5023412;28;20489;-80
2021/08/29 08:21:19;;;;;;;14.85;9.30;;;;;;;16.94;100.00;97637.94;5039589;28;20041;-81
2021/08/29 08:23:47;;;;;;;13.93;8.68;;;;;;;17.18;100.00;97648.66;5038792;28;20049;-79
2021/08/29 08:26:14;;;;;;;10.68;7.60;;;;;;;17.28;100.00;97658.22;5020677;28;20107;-80
2021/08/29 08:28:40;;;;;;;10.30;7.70;;;;;;;17.17;100.00;97649.78;5020041;28;20237;-79
2021/08/29 08:31:07;;;;;;;11.43;7.30;;;;;;;17.36;100.00;97649.03;5019403;28;20053;-79
2021/08/29 08:33:34;;;;;;;10.15;7.32;;;;;;;17.34;100.00;97659.56;5019397;28;20088;-80
2021/08/29 08:36:00;;;;;;;9.85;6.97;;;;;;;17.60;100.00;97650.75;5037037;28;20049;-79
2021/08/29 08:38:28;;;;;;;11.63;7.18;;;;;;;17.78;100.00;97658.13;5037816;28;20057;-79
2021/08/29 08:40:54;;;;;;;10.02;7.05;;;;;;;17.66;100.00;97646.53;5040269;28;20072;-78
2021/08/29 08:43:21;;;;;;;11.18;7.85;;;;;;;17.42;100.00;97659.31;5038277;28;20049;-79
2021/08/29 08:45:51;;;;;;;11.55;8.93;;;;;;;17.63;100.00;97663.69;5028583;28;20276;-79
2021/08/29 08:48:21;;;;;;;14.35;10.18;;;;;;;17.77;100.00;97662.03;5034372;28;20056;-79
2021/08/29 08:50:50;;;;;;;11.50;7.50;;;;;;;17.60;100.00;97661.69;5035754;28;20038;-77
2021/08/29 08:53:22;;;;;;;12.75;7.72;;;;;;;17.68;100.00;97661.47;5036130;28;20064;-79
2021/08/29 08:55:50;;;;;;;11.77;7.72;;;;;;;17.37;100.00;97662.34;5036342;28;20038;-79
2021/08/29 08:58:18;;;;;;;10.18;7.20;;;;;;;17.48;100.00;97664.50;5037082;28;20046;-79
2021/08/29 09:00:45;;;;;;;9.60;6.78;;;;;;;17.57;100.00;97659.66;5016063;28;20042;-78
2021/08/29 09:03:14;;;;;;;9.45;6.90;;;;;;;17.71;100.00;97662.69;5018115;28;20099;-79
2021/08/29 09:05:41;;;;;;;10.30;5.90;;;;;;;17.48;100.00;97661.78;5017477;28;20172;-78
2021/08/29 09:08:08;;;;;;;7.45;5.32;;;;;;;17.54;100.00;97652.97;5000803;28;20048;-80
2021/08/29 09:10:34;;;;;;;9.48;5.80;;;;;;;17.41;100.00;97657.75;5037815;28;20049;-79
2021/08/29 09:13:04;;;;;;;7.80;5.30;;;;;;;17.21;100.00;97652.63;5027591;28;20053;-78
2021/08/29 09:15:31;;;;;;;10.80;6.15;;;;;;;17.33;100.00;97666.16;5025718;28;20456;-80
2021/08/29 09:17:59;;;;;;;8.85;6.13;;;;;;;17.00;100.00;97652.94;5038018;28;20049;-79
2021/08/29 09:20:39;;;;;;;9.32;6.40;;;;;;;17.31;100.00;97661.06;5003973;28;20045;-78
2021/08/29 09:23:07;;;;;;;8.75;5.30;;;;;;;17.56;100.00;97666.28;5019087;28;20053;-81
2021/08/29 09:25:40;;;;;;;8.27;6.00;;;;;;;17.41;100.00;97660.50;5036075;28;20087;-80
2021/08/29 09:28:13;;;;;;;9.80;6.25;;;;;;;17.62;100.00;97653.91;5023738;28;20049;-79
2021/08/29 09:30:42;;;;;;;6.88;5.57;;;;;;;17.58;100.00;97651.09;5032683;28;20435;-79
2021/08/29 09:33:10;;;;;;;7.55;5.78;;;;;;;17.53;100.00;97645.91;5034925;28;20056;-79
2021/08/29 09:35:38;;;;;;;6.63;5.03;;;;;;;17.55;100.00;97657.28;4999648;28;20049;-81
2021/08/29 09:38:10;;;;;;;7.00;5.40;;;;;;;17.57;100.00;97657.72;5014792;28;20060;-77
2021/08/29 09:40:38;;;;;;;6.97;5.55;;;;;;;17.61;100.00;97642.16;4999419;28;20059;-80
2021/08/29 09:43:06;;;;;;;7.60;5.28;;;;;;;17.62;100.00;97648.44;5017377;28;20476;-81
2021/08/29 09:45:41;;;;;;;6.70;5.10;;;;;;;17.67;100.00;97648.13;5017372;28;20048;-81
2021/08/29 09:48:10;;;;;;;;;;;;;;;17.90;100.00;97644.31;5035513;28;20037;-80
2021/08/29 09:50:38;;;;;;;6.93;5.28;;;;;;;18.11;100.00;97632.16;5035079;28;19920;-79
2021/08/29 09:53:08;;;;;;;6.10;4.18;;;;;;;17.87;100.00;97641.50;5017753;28;20472;-79
2021/08/29 09:55:40;;;;;;;5.22;4.03;;;;;;;17.95;100.00;97638.53;5016370;28;20095;-81
2021/08/29 09:58:34;;;;;;;5.38;3.70;;;;;;;17.88;100.00;97640.34;5017507;28;20540;-81
2021/08/29 10:01:00;;;;;;;4.53;3.67;;;;;;;18.12;100.00;97629.06;5034686;28;20045;-80
2021/08/29 10:03:28;;;;;;;7.38;3.35;;;;;;;18.13;100.00;97627.91;5019207;28;20521;-78
2021/08/29 10:06:25;;;;;;;4.55;3.50;;;;;;;18.01;100.00;97633.56;5018032;28;20034;-81
2021/08/29 10:09:00;;;;;;;6.20;3.28;;;;;;;17.94;100.00;97620.50;5041331;28;20045;-77
2021/08/29 10:11:30;;;;;;;7.22;3.90;;;;;;;18.36;100.00;97616.94;5035203;28;20053;-77
2021/08/29 10:13:59;;;;;;;6.30;3.53;;;;;;;18.59;100.00;97620.50;5033407;28;20042;-80
2021/08/29 10:16:27;;;;;;;5.55;3.40;;;;;;;18.54;100.00;97618.88;5002010;28;20045;-78
2021/08/29 10:18:55;;;;;;;4.70;3.20;;;;;;;18.94;100.00;97612.84;5016404;28;20092;-77
2021/08/29 10:21:27;;;;;;;4.88;3.22;;;;;;;19.36;100.00;97607.13;5035540;28;20413;-78
2021/08/29 10:23:56;;;;;;;6.38;3.90;;;;;;;19.77;100.00;97600.59;5017353;28;20393;-80
2021/08/29 10:26:24;;;;;;;5.68;3.50;;;;;;;20.02;100.00;97594.59;5034229;28;20041;-80
2021/08/29 10:29:01;;;;;;;3.45;2.67;;;;;;;20.62;100.00;97600.66;5015886;28;20041;-80
2021/08/29 10:31:36;;;;;;;4.88;2.70;;;;;;;21.88;100.00;97594.31;5020933;28;20128;-79
2021/08/29 10:34:04;;;;;;;4.00;3.15;;;;;;;21.21;100.00;97600.31;5021238;28;20513;-79
2021/08/29 10:36:31;;;;;;;4.72;3.03;;;;;;;20.71;100.00;97590.09;5019781;28;20045;-79
2021/08/29 10:38:57;;;;;;;7.70;2.90;;;;;;;20.44;100.00;97600.53;5019797;28;20064;-80
2021/08/29 10:41:25;;;;;;;7.28;3.33;;;;;;;20.66;100.00;97594.00;5038498;28;20133;-81
2021/08/29 10:43:52;;;;;;;7.32;3.40;;;;;;;20.09;100.00;97600.16;5024112;28;20099;-77
2021/08/29 10:46:20;;;;;;;6.15;3.83;;;;;;;20.34;100.00;97596.50;5039662;28;20055;-78
2021/08/29 10:48:50;;;;;;;6.90;4.47;;;;;;;19.98;100.00;97585.50;5004372;28;20053;-80
2021/08/29 10:51:19;;;;;;;4.15;2.72;;;;;;;19.82;100.00;97594.00;5047910;28;20029;-79
2021/08/29 10:53:51;;;;;;;4.47;3.05;;;;;;;19.85;100.00;97591.25;5018072;28;20052;-78
2021/08/29 10:56:18;;;;;;;3.10;2.15;;;;;;;20.06;100.00;97576.94;5019354;28;20046;-78
2021/08/29 10:59:08;;;;;;;4.47;3.28;;;;;;;20.04;100.00;97578.50;5036417;28;20042;-82
2021/08/29 11:01:41;;;;;;;4.93;3.45;;;;;;;20.78;100.00;97577.19;5019484;28;20037;-78
2021/08/29 11:04:17;;;;;;;7.32;3.90;;;;;;;21.49;100.00;97577.63;5019236;28;20069;-77
2021/08/29 11:06:53;;;;;;;6.50;3.25;;;;;;;22.75;100.00;97587.34;5017073;28;20103;-80
2021/08/29 11:09:35;;;;;;;3.53;2.63;;;;;;;24.94;91.91;97564.91;5000392;28;20341;-79
2021/08/29 11:12:12;;;;;;;5.38;2.63;;;;;;;26.61;73.32;97558.75;5016924;28;20280;-78
2021/08/29 11:14:40;;;;;;;3.63;2.60;;;;;;;26.45;65.76;97556.66;5034046;28;20512;-77
2021/08/29 11:17:15;;;;;;;5.22;2.67;;;;;;;26.15;62.12;97553.94;5033749;28;20489;-79